Time;durP1;ratioP1;P1;durP2;ratioP2;P2;SDS_P1;SDS_P2;PMS_P1;PMS_P2;Temp;Humidity;BMP_temperature;BMP_pressure;BME280_temperature;BME280_humidity;BME280_pressure;Samples;Min_cycle;Max_cycle;Signal;HPM_P1;HPM_P2
2020/12/02 00:01:55;;;;;;;12.47;9.17;;;6.20;99.90;;;;;;5069070;28;20202;-88
2020/12/02 00:04:22;;;;;;;12.27;9.47;;;6.20;99.90;;;;;;5071446;28;20216;-89
2020/12/02 00:06:50;;;;;;;11.00;8.80;;;6.20;99.90;;;;;;5071580;28;20205;-87
2020/12/02 00:09:19;;;;;;;13.87;9.03;;;6.20;99.90;;;;;;5071457;28;20284;-86
2020/12/02 00:11:47;;;;;;;12.27;9.17;;;6.20;99.90;;;;;;5078057;28;20205;-76
2020/12/02 00:14:22;;;;;;;10.80;9.07;;;6.20;99.90;;;;;;5073048;28;20213;-76
2020/12/02 00:16:48;;;;;;;13.43;10.07;;;6.20;99.90;;;;;;5067414;28;20306;-77
2020/12/02 00:19:15;;;;;;;14.10;9.70;;;6.20;99.90;;;;;;5068231;28;20593;-75
2020/12/02 00:21:41;;;;;;;16.13;10.40;;;6.20;99.90;;;;;;5065013;28;20209;-78
2020/12/02 00:24:08;;;;;;;16.30;10.37;;;6.20;99.90;;;;;;5065826;28;20197;-77
2020/12/02 00:26:34;;;;;;;13.87;11.47;;;6.20;99.90;;;;;;5065018;28;20208;-89
2020/12/02 00:29:00;;;;;;;14.90;9.87;;;6.20;99.90;;;;;;5065353;28;20197;-76
2020/12/02 00:31:27;;;;;;;13.53;10.50;;;6.20;99.90;;;;;;5064859;28;20197;-76
2020/12/02 00:33:54;;;;;;;11.67;9.37;;;6.20;99.90;;;;;;5066477;28;20217;-76
2020/12/02 00:36:21;;;;;;;13.23;10.70;;;6.20;99.90;;;;;;5064046;28;20208;-76
2020/12/02 00:38:47;;;;;;;11.77;9.60;;;6.20;99.90;;;;;;5065397;28;20189;-89
2020/12/02 00:41:13;;;;;;;13.73;10.10;;;6.20;99.90;;;;;;5066638;28;20201;-76
2020/12/02 00:43:40;;;;;;;17.20;11.23;;;6.20;99.90;;;;;;5064935;28;20197;-77
2020/12/02 00:46:07;;;;;;;14.37;10.43;;;6.30;99.90;;;;;;5065378;28;20208;-77
2020/12/02 00:48:35;;;;;;;14.23;11.50;;;6.30;99.90;;;;;;5066358;28;20200;-89
2020/12/02 00:51:04;;;;;;;14.87;10.57;;;6.30;99.90;;;;;;5065535;28;20193;-76
2020/12/02 00:53:33;;;;;;;16.17;11.03;;;6.30;99.90;;;;;;5067410;28;20711;-88
2020/12/02 00:56:01;;;;;;;14.00;10.57;;;6.40;99.90;;;;;;5069031;28;20197;-88
2020/12/02 00:58:39;;;;;;;14.30;11.83;;;6.40;99.90;;;;;;5066021;28;20319;-77
2020/12/02 01:01:08;;;;;;;15.50;11.43;;;6.40;99.90;;;;;;5071205;28;20193;-85
2020/12/02 01:03:35;;;;;;;16.57;11.20;;;6.50;99.90;;;;;;5070381;28;20205;-88
2020/12/02 01:06:04;;;;;;;18.00;11.33;;;6.40;99.90;;;;;;5070943;28;20213;-88
2020/12/02 01:08:34;;;;;;;15.37;12.03;;;6.40;99.90;;;;;;5071221;28;20205;-90
2020/12/02 01:11:04;;;;;;;15.80;10.53;;;6.50;99.90;;;;;;5071175;28;20193;-90
2020/12/02 01:13:33;;;;;;;17.60;11.43;;;6.50;99.90;;;;;;5070741;28;20212;-89
2020/12/02 01:16:02;;;;;;;15.03;10.47;;;6.50;99.90;;;;;;5070697;28;20221;-87
2020/12/02 01:18:28;;;;;;;14.77;10.63;;;6.50;99.90;;;;;;5070562;28;20205;-89
2020/12/02 01:21:05;;;;;;;15.60;11.27;;;6.50;99.90;;;;;;5071303;28;20201;-89
2020/12/02 01:23:32;;;;;;;14.60;11.10;;;6.60;99.90;;;;;;5070395;28;20193;-89
2020/12/02 01:25:59;;;;;;;17.37;12.53;;;6.60;99.90;;;;;;5069290;28;20209;-88
2020/12/02 01:28:31;;;;;;;13.27;10.97;;;6.60;99.90;;;;;;5071498;28;20216;-88
2020/12/02 01:30:59;;;;;;;14.50;10.40;;;6.60;99.90;;;;;;5071710;28;20204;-89
2020/12/02 01:33:27;;;;;;;13.80;10.17;;;6.70;99.90;;;;;;5071546;28;20213;-89
2020/12/02 01:35:54;;;;;;;18.20;11.97;;;6.60;99.90;;;;;;5070849;28;20201;-88
2020/12/02 01:38:32;;;;;;;15.00;11.87;;;6.60;99.90;;;;;;5070496;28;20198;-89
2020/12/02 01:40:58;;;;;;;16.67;10.33;;;6.70;99.90;;;;;;5070695;28;20216;-88
2020/12/02 01:43:25;;;;;;;13.40;11.13;;;6.70;99.90;;;;;;5070419;28;20197;-90
2020/12/02 01:45:54;;;;;;;15.93;11.53;;;6.70;99.90;;;;;;5070778;28;20617;-89
2020/12/02 01:48:39;;;;;;;16.83;11.03;;;6.70;99.90;;;;;;5070569;28;20201;-90
2020/12/02 01:51:11;;;;;;;15.60;12.13;;;6.70;99.90;;;;;;5071079;28;20209;-89
2020/12/02 01:53:48;;;;;;;14.03;11.10;;;6.70;99.90;;;;;;5070188;28;20232;-89
2020/12/02 01:56:20;;;;;;;15.47;11.43;;;6.70;99.90;;;;;;5069525;28;20192;-87
2020/12/02 01:58:58;;;;;;;13.73;11.17;;;6.70;99.90;;;;;;5064468;28;20200;-89
2020/12/02 02:01:34;;;;;;;14.40;11.40;;;6.70;99.90;;;;;;5063374;28;20228;-89
2020/12/02 02:04:02;;;;;;;13.60;10.53;;;6.70;99.90;;;;;;5064106;28;20190;-89
2020/12/02 02:06:49;;;;;;;12.50;10.20;;;6.70;99.90;;;;;;5066926;28;20205;-89
2020/12/02 02:09:17;;;;;;;16.03;10.63;;;6.70;99.90;;;;;;5071653;28;20212;-90
2020/12/02 02:11:49;;;;;;;15.17;10.93;;;6.70;99.90;;;;;;5074095;28;20201;-89
2020/12/02 02:14:27;;;;;;;11.03;9.83;;;6.80;99.90;;;;;;5073842;28;20209;-85
2020/12/02 02:16:53;;;;;;;12.67;10.33;;;6.70;99.90;;;;;;5074149;28;20216;-90
2020/12/02 02:19:22;;;;;;;14.40;10.83;;;6.80;99.90;;;;;;5073740;28;20599;-88
2020/12/02 02:21:52;;;;;;;17.07;12.30;;;6.80;99.90;;;;;;5074207;28;20198;-89
2020/12/02 02:24:19;;;;;;;12.57;10.33;;;6.80;99.90;;;;;;5073981;28;20193;-87
2020/12/02 02:26:50;;;;;;;13.10;10.53;;;6.80;99.90;;;;;;5073861;28;20201;-88
2020/12/02 02:29:21;;;;;;;15.43;10.97;;;6.80;99.90;;;;;;5073435;28;20205;-89
2020/12/02 02:31:57;;;;;;;13.33;10.80;;;6.80;99.90;;;;;;5074348;28;20194;-89
2020/12/02 02:34:24;;;;;;;13.67;10.93;;;6.70;99.90;;;;;;5073966;28;20213;-88
2020/12/02 02:36:52;;;;;;;16.13;11.67;;;6.80;99.90;;;;;;5073712;28;20200;-87
2020/12/02 02:39:18;;;;;;;14.37;10.73;;;6.80;99.90;;;;;;5078574;28;20209;-88
2020/12/02 02:41:45;;;;;;;13.63;9.90;;;6.80;99.90;;;;;;5076402;28;20216;-87
2020/12/02 02:44:13;;;;;;;12.20;10.00;;;6.80;99.90;;;;;;5074397;28;20194;-81
2020/12/02 02:46:40;;;;;;;15.87;10.97;;;6.80;99.90;;;;;;5074577;28;20201;-84
2020/12/02 02:49:08;;;;;;;11.77;8.97;;;6.80;99.90;;;;;;5073346;28;20201;-89
2020/12/02 02:51:34;;;;;;;14.30;10.77;;;6.80;99.90;;;;;;5072972;28;20212;-89
2020/12/02 02:54:01;;;;;;;14.93;10.37;;;6.80;99.90;;;;;;5072426;28;20245;-85
2020/12/02 02:56:27;;;;;;;14.90;10.80;;;6.80;99.90;;;;;;5072690;28;20240;-89
2020/12/02 02:58:53;;;;;;;13.40;10.97;;;6.80;99.90;;;;;;5072711;28;20216;-88
2020/12/02 03:01:21;;;;;;;15.47;10.73;;;6.80;99.90;;;;;;5072601;28;20189;-89
2020/12/02 03:03:47;;;;;;;12.90;10.03;;;6.70;99.90;;;;;;5068562;28;20469;-87
2020/12/02 03:06:13;;;;;;;12.63;10.37;;;6.80;99.90;;;;;;5065617;28;20201;-89
2020/12/02 03:08:40;;;;;;;13.43;10.90;;;6.70;99.90;;;;;;5065730;28;20193;-80
2020/12/02 03:11:09;;;;;;;15.67;10.67;;;6.70;99.90;;;;;;5065104;28;20201;-77
2020/12/02 03:13:39;;;;;;;11.40;9.13;;;6.80;99.90;;;;;;5065301;28;20225;-76
2020/12/02 03:16:11;;;;;;;11.73;9.73;;;6.70;99.90;;;;;;5065205;28;20221;-76
2020/12/02 03:18:40;;;;;;;11.67;9.87;;;6.80;99.90;;;;;;5064028;28;20831;-76
2020/12/02 03:21:13;;;;;;;14.90;10.33;;;6.70;99.90;;;;;;5063541;28;20209;-89
2020/12/02 03:23:39;;;;;;;17.03;10.80;;;6.80;99.90;;;;;;5065588;28;20209;-77
2020/12/02 03:26:06;;;;;;;11.77;9.10;;;6.70;99.90;;;;;;5064384;28;20943;-77
2020/12/02 03:28:32;;;;;;;13.17;10.17;;;6.80;99.90;;;;;;5065856;28;20201;-77
2020/12/02 03:31:01;;;;;;;13.63;10.00;;;6.80;99.90;;;;;;5065672;28;20213;-80
2020/12/02 03:33:28;;;;;;;12.97;9.93;;;6.80;99.90;;;;;;5065377;28;20208;-76
2020/12/02 03:35:56;;;;;;;13.07;9.93;;;6.80;99.90;;;;;;5065137;28;20209;-76
2020/12/02 03:38:23;;;;;;;9.47;8.47;;;6.70;99.90;;;;;;5064110;28;20220;-78
2020/12/02 03:40:50;;;;;;;11.07;9.30;;;6.70;99.90;;;;;;5065296;28;20771;-76
2020/12/02 03:43:18;;;;;;;12.80;10.37;;;6.70;99.90;;;;;;5065041;28;20217;-76
2020/12/02 03:45:45;;;;;;;12.43;9.73;;;6.80;99.90;;;;;;5063431;28;20231;-77
2020/12/02 03:48:15;;;;;;;11.30;9.30;;;6.80;99.90;;;;;;5063593;28;20221;-77
2020/12/02 03:50:42;;;;;;;13.97;10.80;;;6.80;99.90;;;;;;5069948;28;20201;-76
2020/12/02 03:53:11;;;;;;;12.33;9.77;;;6.80;99.90;;;;;;5063699;28;20325;-76
2020/12/02 03:55:37;;;;;;;14.70;10.60;;;6.80;99.90;;;;;;5074881;28;20202;-79
2020/12/02 03:58:04;;;;;;;17.63;11.80;;;6.80;99.90;;;;;;5066917;28;20208;-77
2020/12/02 04:00:30;;;;;;;15.80;11.50;;;6.90;99.90;;;;;;5066746;28;20205;-76
2020/12/02 04:02:56;;;;;;;16.67;11.67;;;6.90;99.90;;;;;;5067177;28;20201;-88
2020/12/02 04:05:23;;;;;;;16.63;11.23;;;6.90;99.90;;;;;;5065035;28;20197;-76
2020/12/02 04:07:50;;;;;;;16.60;10.97;;;6.90;99.90;;;;;;5062914;28;20976;-76
2020/12/02 04:10:17;;;;;;;16.23;11.70;;;6.90;99.90;;;;;;5063251;28;20201;-76
2020/12/02 04:12:45;;;;;;;19.37;12.43;;;6.90;99.90;;;;;;5065676;28;20879;-77
2020/12/02 04:15:12;;;;;;;20.60;11.87;;;6.90;99.90;;;;;;5062499;28;20225;-78
2020/12/02 04:17:38;;;;;;;16.40;12.10;;;6.80;99.90;;;;;;5064262;28;20678;-76
2020/12/02 04:20:05;;;;;;;14.93;11.83;;;6.80;99.90;;;;;;5065057;28;20591;-76
2020/12/02 04:22:31;;;;;;;17.23;12.73;;;6.80;99.90;;;;;;5063531;28;20632;-74
2020/12/02 04:24:58;;;;;;;21.53;12.70;;;6.80;99.90;;;;;;5060166;28;20208;-76
2020/12/02 04:27:25;;;;;;;17.97;12.80;;;6.70;99.90;;;;;;5044567;28;20965;-76
2020/12/02 04:29:51;;;;;;;16.23;12.70;;;6.70;99.90;;;;;;5044181;28;20202;-76
2020/12/02 04:32:18;;;;;;;18.17;13.50;;;6.70;99.90;;;;;;5043294;28;20201;-76
2020/12/02 04:34:44;;;;;;;15.83;12.00;;;6.70;99.90;;;;;;5044315;28;20256;-75
2020/12/02 04:37:10;;;;;;;18.57;13.33;;;6.60;99.90;;;;;;5045195;28;20874;-76
2020/12/02 04:39:36;;;;;;;19.23;12.83;;;6.60;99.90;;;;;;5043716;28;20595;-76
2020/12/02 04:42:05;;;;;;;16.93;12.40;;;6.50;99.90;;;;;;5045124;28;20201;-78
2020/12/02 04:44:32;;;;;;;17.33;11.67;;;6.50;99.90;;;;;;5045935;28;20194;-83
2020/12/02 04:46:59;;;;;;;18.17;12.97;;;6.50;99.90;;;;;;5044098;28;20201;-77
2020/12/02 04:49:29;;;;;;;19.50;12.50;;;6.50;99.90;;;;;;5044611;28;20202;-76
2020/12/02 04:51:59;;;;;;;19.40;13.83;;;6.50;99.90;;;;;;5044961;28;20205;-76
2020/12/02 04:54:25;;;;;;;18.10;12.67;;;6.50;99.90;;;;;;5050622;28;20630;-89
2020/12/02 04:56:51;;;;;;;16.53;11.67;;;6.50;99.90;;;;;;5049638;28;20202;-88
2020/12/02 04:59:17;;;;;;;21.40;14.57;;;6.40;99.90;;;;;;5051340;28;20198;-88
2020/12/02 05:01:50;;;;;;;19.33;13.63;;;6.40;99.90;;;;;;5050628;28;20220;-88
2020/12/02 05:04:20;;;;;;;21.00;14.97;;;6.40;99.90;;;;;;5048856;28;20202;-87
2020/12/02 05:06:49;;;;;;;20.07;13.47;;;6.40;99.90;;;;;;5055761;28;20202;-76
2020/12/02 05:09:19;;;;;;;20.70;13.33;;;6.40;99.90;;;;;;5052100;28;20198;-76
2020/12/02 05:11:59;;;;;;;19.47;14.03;;;6.40;99.90;;;;;;5048576;28;20208;-84
2020/12/02 05:14:35;;;;;;;19.50;13.87;;;6.40;99.90;;;;;;5047370;28;20217;-77
2020/12/02 05:17:14;;;;;;;21.23;13.93;;;6.40;99.90;;;;;;5047227;28;20555;-76
2020/12/02 05:19:41;;;;;;;19.47;12.93;;;6.40;99.90;;;;;;5047066;28;20206;-86
2020/12/02 05:22:13;;;;;;;21.40;13.57;;;6.40;99.90;;;;;;5045028;28;20206;-76
2020/12/02 05:24:46;;;;;;;22.17;13.80;;;6.40;99.90;;;;;;5044973;28;20245;-76
2020/12/02 05:27:18;;;;;;;20.93;14.60;;;6.40;99.90;;;;;;5064719;28;20197;-77
2020/12/02 05:29:50;;;;;;;19.30;13.53;;;6.40;99.90;;;;;;5065837;28;20205;-77
2020/12/02 05:32:20;;;;;;;19.43;13.80;;;6.40;99.90;;;;;;5064019;28;20202;-76
2020/12/02 05:34:47;;;;;;;15.13;11.67;;;6.40;99.90;;;;;;5065350;28;20614;-78
2020/12/02 05:37:20;;;;;;;18.73;12.93;;;6.40;99.90;;;;;;5064127;28;20547;-80
2020/12/02 05:39:51;;;;;;;16.37;12.50;;;6.40;99.90;;;;;;5065715;28;20274;-87
2020/12/02 05:42:26;;;;;;;15.80;11.73;;;6.40;99.90;;;;;;5065060;28;20205;-76
2020/12/02 05:45:00;;;;;;;21.97;15.23;;;6.40;99.90;;;;;;5069229;28;20196;-75
2020/12/02 05:47:28;;;;;;;20.17;13.23;;;6.50;99.90;;;;;;5068714;28;20208;-86
2020/12/02 05:49:57;;;;;;;18.03;12.77;;;6.50;99.90;;;;;;5069591;28;20209;-87
2020/12/02 05:52:27;;;;;;;20.37;13.30;;;6.50;99.90;;;;;;5070676;28;20251;-77
2020/12/02 05:54:57;;;;;;;16.60;11.97;;;6.50;99.90;;;;;;5069199;28;20213;-76
2020/12/02 05:57:23;;;;;;;19.30;13.70;;;6.50;99.90;;;;;;5069734;28;20568;-87
2020/12/02 05:59:53;;;;;;;23.03;16.07;;;6.50;99.90;;;;;;5071949;28;20228;-88
2020/12/02 06:02:21;;;;;;;21.53;14.70;;;6.50;99.90;;;;;;5073146;28;20225;-88
2020/12/02 06:04:53;;;;;;;19.63;15.17;;;6.50;99.90;;;;;;5073708;28;20201;-87
2020/12/02 06:07:20;;;;;;;22.73;15.40;;;6.50;99.90;;;;;;5074106;28;20242;-86
2020/12/02 06:09:49;;;;;;;21.80;14.67;;;6.50;99.90;;;;;;5073072;28;20201;-87
2020/12/02 06:12:16;;;;;;;25.53;16.70;;;6.50;99.90;;;;;;5073140;28;20205;-87
2020/12/02 06:14:43;;;;;;;27.10;17.17;;;6.60;99.90;;;;;;5073687;28;20526;-87
2020/12/02 06:17:13;;;;;;;23.63;16.33;;;6.60;99.90;;;;;;5073686;28;20221;-84
2020/12/02 06:19:48;;;;;;;22.03;15.73;;;6.60;99.90;;;;;;5072950;28;20288;-76
2020/12/02 06:22:41;;;;;;;23.60;15.33;;;6.60;99.90;;;;;;5081177;28;20192;-79
2020/12/02 06:25:33;;;;;;;27.23;17.93;;;6.60;99.90;;;;;;5073018;28;20193;-87
2020/12/02 06:28:00;;;;;;;25.83;17.20;;;6.60;99.90;;;;;;5071683;28;20612;-82
2020/12/02 06:30:26;;;;;;;23.70;16.20;;;6.60;99.90;;;;;;5070749;28;20399;-81
2020/12/02 06:33:28;;;;;;;26.97;18.47;;;6.60;99.90;;;;;;5071903;28;20686;-86
2020/12/02 06:36:15;;;;;;;29.90;18.93;;;6.60;99.90;;;;;;4967867;28;20228;-76
2020/12/02 06:38:43;;;;;;;32.10;20.60;;;6.60;99.90;;;;;;5064395;28;20201;-87
2020/12/02 06:41:23;;;;;;;29.33;19.37;;;6.60;99.90;;;;;;5070141;28;20201;-81
2020/12/02 06:43:55;;;;;;;29.47;18.97;;;6.60;99.90;;;;;;5069645;28;20529;-79
2020/12/02 06:47:06;;;;;;;29.63;19.53;;;6.60;99.90;;;;;;5068492;28;20506;-86
2020/12/02 06:49:35;;;;;;;32.60;19.83;;;6.60;99.90;;;;;;5068419;28;20284;-78
2020/12/02 06:52:05;;;;;;;32.87;19.30;;;6.60;99.90;;;;;;5071104;28;20193;-83
2020/12/02 06:54:36;;;;;;;30.60;19.80;;;6.60;99.90;;;;;;5068750;28;20240;-85
2020/12/02 06:57:07;;;;;;;31.67;20.13;;;6.60;99.90;;;;;;5072528;28;20224;-87
2020/12/02 06:59:33;;;;;;;31.40;20.53;;;6.60;99.90;;;;;;5072852;28;20193;-85
2020/12/02 07:02:05;;;;;;;29.73;19.47;;;6.60;99.90;;;;;;5072297;28;20652;-83
2020/12/02 07:04:36;;;;;;;34.97;20.97;;;6.60;99.90;;;;;;5072602;28;20198;-87
2020/12/02 07:07:04;;;;;;;32.57;21.03;;;6.60;99.90;;;;;;5072948;28;20302;-87
2020/12/02 07:09:32;;;;;;;41.17;23.63;;;6.60;99.90;;;;;;5071895;28;20644;-79
2020/12/02 07:12:01;;;;;;;38.20;23.70;;;6.60;99.90;;;;;;5072660;28;20197;-88
2020/12/02 07:14:33;;;;;;;31.37;20.30;;;6.60;99.90;;;;;;5072235;28;20232;-87
2020/12/02 07:17:02;;;;;;;33.43;20.70;;;6.50;99.90;;;;;;5072514;28;20213;-87
2020/12/02 07:19:32;;;;;;;31.43;20.30;;;6.50;99.90;;;;;;5071751;28;20224;-86
2020/12/02 07:22:03;;;;;;;39.27;22.30;;;6.60;99.90;;;;;;5072667;28;20200;-89
2020/12/02 07:24:36;;;;;;;36.23;21.93;;;6.60;99.90;;;;;;5072697;28;20197;-87
2020/12/02 07:27:02;;;;;;;33.60;21.13;;;6.60;99.90;;;;;;5072127;28;20221;-86
2020/12/02 07:29:29;;;;;;;30.50;18.63;;;6.60;99.90;;;;;;5072535;28;20212;-87
2020/12/02 07:31:58;;;;;;;37.77;22.07;;;6.60;99.90;;;;;;5072334;28;20197;-86
2020/12/02 07:34:25;;;;;;;28.77;19.13;;;6.60;99.90;;;;;;5072780;28;20221;-87
2020/12/02 07:36:58;;;;;;;31.60;19.03;;;6.50;99.90;;;;;;5077098;28;20209;-78
2020/12/02 07:39:25;;;;;;;29.80;19.60;;;6.60;99.90;;;;;;5070289;28;20201;-85
2020/12/02 07:42:03;;;;;;;33.83;21.03;;;6.60;99.90;;;;;;5072186;28;20334;-85
2020/12/02 07:44:34;;;;;;;30.07;21.20;;;6.60;99.90;;;;;;5070321;28;20590;-83
2020/12/02 07:47:05;;;;;;;30.13;19.60;;;6.60;99.90;;;;;;5070895;28;20345;-76
2020/12/02 07:49:32;;;;;;;29.10;19.03;;;6.60;99.90;;;;;;5070455;28;20205;-87
2020/12/02 07:52:07;;;;;;;31.63;19.73;;;6.60;99.90;;;;;;5068700;28;20224;-86
2020/12/02 07:54:34;;;;;;;31.63;19.53;;;6.60;99.90;;;;;;5069367;28;20599;-89
2020/12/02 07:57:03;;;;;;;27.13;18.97;;;6.60;99.90;;;;;;5069703;28;20201;-77
2020/12/02 07:59:31;;;;;;;27.23;18.03;;;6.60;99.90;;;;;;5068570;28;20197;-78
2020/12/02 08:02:13;;;;;;;28.47;18.33;;;6.60;99.90;;;;;;5069444;28;20263;-87
2020/12/02 08:04:52;;;;;;;29.63;19.50;;;6.70;99.90;;;;;;5070610;28;20593;-78
2020/12/02 08:07:19;;;;;;;30.37;21.37;;;6.70;99.90;;;;;;5070282;28;20514;-87
2020/12/02 08:09:48;;;;;;;29.77;19.40;;;6.70;99.90;;;;;;5070501;28;20204;-88
2020/12/02 08:12:17;;;;;;;28.57;18.53;;;6.70;99.90;;;;;;5070918;28;20200;-85
2020/12/02 08:14:47;;;;;;;27.43;19.97;;;6.70;99.90;;;;;;5070162;28;20252;-83
2020/12/02 08:34:31;;;;;;;29.30;19.50;;;6.70;99.90;;;;;;4904526;28;20550;-82
2020/12/02 08:37:17;;;;;;;26.77;17.83;;;6.70;99.90;;;;;;4977695;28;20528;-83
2020/12/02 08:39:45;;;;;;;27.07;19.27;;;6.70;99.90;;;;;;5069426;28;20213;-83
2020/12/02 08:42:12;;;;;;;30.67;18.87;;;6.80;99.90;;;;;;5069724;28;20197;-82
2020/12/02 08:44:38;;;;;;;26.83;17.10;;;6.80;99.90;;;;;;5070279;28;20521;-83
2020/12/02 08:47:10;;;;;;;30.37;19.53;;;6.80;99.90;;;;;;5069996;28;20613;-83
2020/12/02 08:49:37;;;;;;;27.27;19.17;;;6.80;99.90;;;;;;5069685;28;20189;-83
2020/12/02 08:52:04;;;;;;;24.13;17.97;;;6.80;99.90;;;;;;5071079;28;20623;-85
2020/12/02 08:54:31;;;;;;;31.47;19.30;;;6.90;99.90;;;;;;5070708;28;20235;-83
2020/12/02 08:57:02;;;;;;;29.27;20.03;;;6.90;99.90;;;;;;5070559;28;20204;-83
2020/12/02 08:59:28;;;;;;;29.30;19.47;;;6.90;99.90;;;;;;5070189;28;20212;-79
2020/12/02 09:02:00;;;;;;;30.43;20.30;;;6.90;99.90;;;;;;5069451;28;20225;-80
2020/12/02 09:04:26;;;;;;;30.50;20.50;;;6.90;99.90;;;;;;5064545;28;20647;-82
2020/12/02 09:06:53;;;;;;;26.63;18.43;;;6.90;99.90;;;;;;5064801;28;20217;-82
2020/12/02 09:09:19;;;;;;;28.50;19.60;;;6.90;99.90;;;;;;5063608;28;20225;-77
2020/12/02 09:11:46;;;;;;;29.30;18.43;;;6.90;99.90;;;;;;5064364;28;20216;-79
2020/12/02 09:14:12;;;;;;;28.60;18.70;;;6.90;99.90;;;;;;5064153;28;20204;-80
2020/12/02 09:16:41;;;;;;;32.37;21.10;;;7.00;99.90;;;;;;5062902;28;20221;-77
2020/12/02 09:19:10;;;;;;;31.13;19.93;;;7.00;99.90;;;;;;5062257;28;20692;-79
2020/12/02 09:21:36;;;;;;;31.77;19.30;;;6.90;99.90;;;;;;5061399;28;20501;-78
2020/12/02 09:24:03;;;;;;;30.47;19.63;;;7.00;99.90;;;;;;5062775;28;20212;-78
2020/12/02 09:26:33;;;;;;;29.13;19.50;;;7.00;99.90;;;;;;5064828;28;20209;-80
2020/12/02 09:29:00;;;;;;;28.73;19.47;;;7.00;99.90;;;;;;5064461;28;20217;-80
2020/12/02 09:31:29;;;;;;;27.13;19.13;;;7.00;99.90;;;;;;5062184;28;20211;-80
2020/12/02 09:33:56;;;;;;;26.47;18.67;;;7.10;99.90;;;;;;5062968;28;20201;-79
2020/12/02 09:36:23;;;;;;;25.97;18.30;;;7.10;99.90;;;;;;5062072;28;20809;-83
2020/12/02 09:38:52;;;;;;;24.93;17.50;;;7.00;99.90;;;;;;5064166;28;20197;-86
2020/12/02 09:41:38;;;;;;;26.60;17.77;;;7.10;99.90;;;;;;5062603;28;20617;-78
2020/12/02 09:44:20;;;;;;;28.33;18.83;;;7.10;99.90;;;;;;5062328;28;20783;-79
2020/12/02 09:46:55;;;;;;;32.20;19.80;;;7.10;99.90;;;;;;5063700;28;20197;-81
2020/12/02 09:49:22;;;;;;;28.40;18.30;;;7.10;99.90;;;;;;5062084;28;20193;-78
2020/12/02 09:51:52;;;;;;;24.10;16.93;;;7.20;99.90;;;;;;5062236;28;20193;-79
2020/12/02 09:54:19;;;;;;;27.10;17.97;;;7.20;99.90;;;;;;5061542;28;20736;-86
2020/12/02 09:56:46;;;;;;;27.90;19.80;;;7.20;99.90;;;;;;5062938;28;20514;-83
2020/12/02 09:59:13;;;;;;;30.33;19.47;;;7.10;99.90;;;;;;5062163;28;20205;-79
2020/12/02 10:01:52;;;;;;;29.33;19.73;;;7.20;99.90;;;;;;5064353;28;20198;-87
2020/12/02 10:04:38;;;;;;;26.17;19.60;;;7.20;99.90;;;;;;5080411;28;20200;-87
2020/12/02 10:07:26;;;;;;;28.90;19.57;;;7.20;99.90;;;;;;5076483;28;20208;-81
2020/12/02 10:10:10;;;;;;;28.07;18.37;;;7.20;99.90;;;;;;5067892;28;20201;-80
2020/12/02 10:13:00;;;;;;;30.27;18.53;;;7.30;99.90;;;;;;5066731;28;20600;-82
2020/12/02 10:15:35;;;;;;;28.10;18.10;;;7.20;99.90;;;;;;5065374;28;20236;-82
2020/12/02 10:18:43;;;;;;;32.90;18.90;;;7.20;99.90;;;;;;5066430;28;20197;-85
2020/12/02 10:21:16;;;;;;;26.20;18.33;;;7.20;99.90;;;;;;4994821;28;20212;-79
2020/12/02 10:23:57;;;;;;;23.87;16.80;;;7.20;99.90;;;;;;5062518;28;20196;-80
2020/12/02 10:26:48;;;;;;;29.60;19.90;;;7.20;99.90;;;;;;5047073;28;20676;-80
2020/12/02 10:29:25;;;;;;;24.37;16.63;;;7.30;99.90;;;;;;5043479;28;20201;-79
2020/12/02 10:32:01;;;;;;;25.53;17.77;;;7.30;99.90;;;;;;5046672;28;20221;-80
2020/12/02 10:34:30;;;;;;;28.37;18.47;;;7.30;99.90;;;;;;5046456;28;20263;-79
2020/12/02 10:37:00;;;;;;;28.20;18.17;;;7.30;99.90;;;;;;5047514;28;20206;-79
2020/12/02 10:39:30;;;;;;;39.33;20.57;;;7.40;99.90;;;;;;5045527;28;20206;-81
2020/12/02 10:42:13;;;;;;;25.47;18.37;;;7.40;99.90;;;;;;5046289;28;20206;-86
2020/12/02 10:44:55;;;;;;;26.43;18.60;;;7.40;99.90;;;;;;5056429;28;20213;-79
2020/12/02 10:47:50;;;;;;;23.37;17.30;;;7.40;99.90;;;;;;5066365;28;20185;-83
2020/12/02 10:50:18;;;;;;;27.10;18.00;;;7.50;99.90;;;;;;5066527;28;20288;-79
2020/12/02 10:52:47;;;;;;;29.27;19.70;;;7.50;99.90;;;;;;5055409;28;20657;-80
2020/12/02 10:55:16;;;;;;;26.63;18.93;;;7.50;99.90;;;;;;5065923;28;20229;-80
2020/12/02 10:57:43;;;;;;;26.30;19.03;;;7.50;99.90;;;;;;5068240;28;20209;-87
2020/12/02 11:00:14;;;;;;;23.33;17.17;;;7.50;99.90;;;;;;5067534;28;20209;-81
2020/12/02 11:02:41;;;;;;;26.87;18.93;;;7.50;99.90;;;;;;5071716;28;20205;-86
2020/12/02 11:05:09;;;;;;;27.00;18.13;;;7.60;99.90;;;;;;5069980;28;20198;-86
2020/12/02 11:07:46;;;;;;;25.67;18.57;;;7.60;99.90;;;;;;5071506;28;20200;-86
2020/12/02 11:10:19;;;;;;;31.03;20.53;;;7.60;99.90;;;;;;5071433;28;20219;-88
2020/12/02 11:13:08;;;;;;;30.20;20.50;;;7.60;99.90;;;;;;5069573;28;20228;-86
2020/12/02 11:15:47;;;;;;;27.50;18.20;;;7.60;99.90;;;;;;5071311;28;20244;-84
2020/12/02 11:18:40;;;;;;;28.57;18.53;;;7.60;99.90;;;;;;5070171;28;20193;-84
2020/12/02 11:21:21;;;;;;;22.57;17.00;;;7.60;99.90;;;;;;5069961;28;20515;-85
2020/12/02 11:24:02;;;;;;;25.73;19.80;;;7.60;99.90;;;;;;5070156;28;20241;-81
2020/12/02 11:26:30;;;;;;;27.83;19.43;;;7.60;99.90;;;;;;5066930;28;20204;-80
2020/12/02 11:28:58;;;;;;;25.87;18.40;;;7.60;99.90;;;;;;5069810;28;20201;-85
2020/12/02 11:31:49;;;;;;;23.80;16.77;;;7.60;99.90;;;;;;5064603;28;20213;-85
2020/12/02 11:34:33;;;;;;;24.30;18.27;;;7.70;99.90;;;;;;5069823;28;20232;-84
2020/12/02 11:37:05;;;;;;;24.00;17.90;;;7.70;99.90;;;;;;5068687;28;20205;-85
2020/12/02 11:39:58;;;;;;;22.43;15.87;;;7.80;99.90;;;;;;5067897;28;20204;-85
2020/12/02 11:42:32;;;;;;;23.27;16.77;;;7.80;99.90;;;;;;5068567;28;20231;-87
2020/12/02 11:45:06;;;;;;;28.17;19.30;;;7.80;99.90;;;;;;5069143;28;20207;-79
2020/12/02 11:47:46;;;;;;;26.40;17.73;;;7.80;99.90;;;;;;5066189;28;20193;-83
2020/12/02 11:50:16;;;;;;;27.33;17.70;;;7.80;99.90;;;;;;5068395;28;20189;-86
2020/12/02 11:52:53;;;;;;;26.90;18.50;;;7.80;99.90;;;;;;5069220;28;20218;-88
2020/12/02 11:55:20;;;;;;;23.20;16.80;;;7.90;99.90;;;;;;5067670;28;20221;-82
2020/12/02 11:57:50;;;;;;;24.40;16.70;;;7.90;99.90;;;;;;5069419;28;20979;-87
2020/12/02 12:00:16;;;;;;;27.17;17.90;;;7.90;99.90;;;;;;5070275;28;20209;-87
2020/12/02 12:03:01;;;;;;;26.07;17.53;;;7.90;99.90;;;;;;5069489;28;20702;-88
2020/12/02 12:05:33;;;;;;;24.73;16.40;;;7.90;99.90;;;;;;5069704;28;20209;-84
2020/12/02 12:08:07;;;;;;;23.63;15.13;;;7.90;99.90;;;;;;5070539;28;20205;-80
2020/12/02 12:10:38;;;;;;;22.80;16.97;;;8.00;99.90;;;;;;5068591;28;20197;-88
2020/12/02 12:13:14;;;;;;;21.90;15.20;;;8.00;99.90;;;;;;5069427;28;20228;-87
2020/12/02 12:15:44;;;;;;;22.70;15.83;;;8.00;99.90;;;;;;5070023;28;20240;-87
2020/12/02 12:18:17;;;;;;;20.07;13.33;;;7.90;99.90;;;;;;5069801;28;20849;-88
2020/12/02 12:20:52;;;;;;;20.07;14.53;;;7.90;99.90;;;;;;5070146;28;20212;-87
2020/12/02 12:23:30;;;;;;;22.70;14.17;;;7.90;99.90;;;;;;5070083;28;20230;-86
2020/12/02 12:25:57;;;;;;;23.53;14.33;;;7.90;99.90;;;;;;5069743;28;20211;-83
2020/12/02 12:28:28;;;;;;;18.80;13.00;;;8.00;99.90;;;;;;5070261;28;20223;-88
2020/12/02 12:30:58;;;;;;;17.27;12.87;;;7.90;99.90;;;;;;5071219;28;20194;-89
2020/12/02 12:33:32;;;;;;;20.13;13.33;;;7.90;99.90;;;;;;5069811;28;20197;-88
2020/12/02 12:36:04;;;;;;;19.60;13.93;;;7.90;99.90;;;;;;5065828;28;20219;-80
2020/12/02 12:38:35;;;;;;;17.83;13.03;;;7.90;99.90;;;;;;5067987;28;20201;-89
2020/12/02 12:41:03;;;;;;;19.67;13.80;;;7.90;99.90;;;;;;5069355;28;20198;-82
2020/12/02 12:43:39;;;;;;;20.93;13.63;;;7.90;99.90;;;;;;5065708;28;20193;-89
2020/12/02 12:46:13;;;;;;;18.10;13.00;;;7.90;99.90;;;;;;5067965;28;20197;-86
2020/12/02 12:48:42;;;;;;;17.10;12.37;;;7.90;99.90;;;;;;5071477;28;20196;-87
2020/12/02 12:51:10;;;;;;;18.73;13.30;;;7.90;99.90;;;;;;5069725;28;20200;-85
2020/12/02 12:53:40;;;;;;;16.47;12.50;;;7.80;99.90;;;;;;5067719;28;20623;-87
2020/12/02 12:56:11;;;;;;;19.63;13.27;;;7.80;99.90;;;;;;5066962;28;20221;-88
2020/12/02 12:58:39;;;;;;;18.73;12.53;;;7.80;99.90;;;;;;5069140;28;20193;-82
2020/12/02 13:01:09;;;;;;;21.47;13.00;;;7.80;99.90;;;;;;5068097;28;20201;-89
2020/12/02 13:03:36;;;;;;;16.27;13.13;;;7.80;99.90;;;;;;5069916;28;20201;-88
2020/12/02 13:11:16;;;;;;;19.97;13.93;;;7.70;99.90;;;;;;5027645;28;20230;-89
2020/12/02 13:13:54;;;;;;;17.87;13.50;;;7.70;99.90;;;;;;5029432;28;20320;-83
2020/12/02 13:16:28;;;;;;;16.17;12.50;;;7.70;99.90;;;;;;5028303;28;20618;-89
2020/12/02 13:19:11;;;;;;;16.70;12.83;;;7.70;99.90;;;;;;5029327;28;20201;-87
2020/12/02 13:21:42;;;;;;;16.77;13.30;;;7.70;99.90;;;;;;5028588;28;20208;-88